createdAt,value
2019-04-01T00:02:17.736Z,1.90
2019-04-01T00:04:49.122Z,2.30
2019-04-01T00:07:22.358Z,2.07
2019-04-01T00:09:56.374Z,1.53
2019-04-01T00:12:27.630Z,1.70
2019-04-01T00:15:02.342Z,1.60
2019-04-01T00:17:33.458Z,1.30
2019-04-01T00:20:04.649Z,1.90
2019-04-01T00:22:36.026Z,1.60
2019-04-01T00:25:07.376Z,1.30
2019-04-01T00:27:38.738Z,1.60
2019-04-01T00:30:10.311Z,1.67
2019-04-01T00:32:41.615Z,1.93
2019-04-01T00:35:12.942Z,1.63
2019-04-01T00:37:44.265Z,1.47
2019-04-01T00:40:16.028Z,1.70
2019-04-01T00:43:11.130Z,1.67
2019-04-01T00:45:44.108Z,1.30
2019-04-01T00:48:15.442Z,1.90
2019-04-01T00:50:48.751Z,1.30
2019-04-01T00:53:19.963Z,2.80
2019-04-01T00:55:51.222Z,1.43
2019-04-01T00:58:22.536Z,1.57
2019-04-01T01:00:53.766Z,1.80
2019-04-01T01:03:25.815Z,1.47
2019-04-01T01:05:57.470Z,1.20
2019-04-01T01:08:28.717Z,2.43
2019-04-01T01:10:59.928Z,1.20
2019-04-01T01:13:31.153Z,2.37
2019-04-01T01:16:02.467Z,1.60
2019-04-01T01:18:33.626Z,1.57
2019-04-01T01:21:04.829Z,1.53
2019-04-01T01:23:36.058Z,1.17
2019-04-01T01:26:07.363Z,2.00
2019-04-01T01:28:38.555Z,2.00
2019-04-01T01:31:09.876Z,1.80
2019-04-01T01:33:41.763Z,1.60
2019-04-01T01:36:13.068Z,1.10
2019-04-01T01:38:56.817Z,1.53
2019-04-01T01:41:28.143Z,1.43
2019-04-01T01:43:59.502Z,1.30
2019-04-01T01:46:31.196Z,1.47
2019-04-01T01:49:03.095Z,1.53
2019-04-01T01:51:34.723Z,1.73
2019-04-01T01:54:05.963Z,1.57
2019-04-01T01:56:37.213Z,1.93
2019-04-01T01:59:08.566Z,1.40
2019-04-01T02:01:39.852Z,1.60
2019-04-01T02:04:11.598Z,1.87
2019-04-01T02:06:42.964Z,1.70
2019-04-01T02:09:14.161Z,1.63
2019-04-01T02:11:45.402Z,1.30
2019-04-01T02:14:16.568Z,1.57
2019-04-01T02:16:47.895Z,1.50
2019-04-01T02:19:19.104Z,1.50
2019-04-01T02:21:50.385Z,1.43
2019-04-01T02:24:21.637Z,2.00
2019-04-01T02:26:52.883Z,1.17
2019-04-01T02:29:24.319Z,2.27
2019-04-01T02:31:55.568Z,1.50
2019-04-01T02:34:26.984Z,1.83
2019-04-01T02:36:58.265Z,2.20
2019-04-01T02:39:29.654Z,2.20
2019-04-01T02:42:01.318Z,2.27
2019-04-01T02:44:32.633Z,1.70
2019-04-01T02:47:03.896Z,2.00
2019-04-01T02:49:35.159Z,1.97
2019-04-01T02:52:06.489Z,1.70
2019-04-01T02:54:37.752Z,1.90
2019-04-01T02:57:09.072Z,2.03
2019-04-01T02:59:40.311Z,2.07
2019-04-01T03:02:11.588Z,1.50
2019-04-01T03:04:42.850Z,1.73
2019-04-01T03:07:13.994Z,2.00
2019-04-01T03:09:45.247Z,1.80
2019-04-01T03:12:16.469Z,2.00
2019-04-01T03:14:47.593Z,2.30
2019-04-01T03:17:18.862Z,2.10
2019-04-01T03:19:50.109Z,2.00
2019-04-01T03:22:21.409Z,1.87
2019-04-01T03:24:52.615Z,3.43
2019-04-01T03:27:23.862Z,4.83
2019-04-01T03:29:55.102Z,2.33
2019-04-01T03:32:26.355Z,2.37
2019-04-01T03:34:57.648Z,2.13
2019-04-01T03:37:28.873Z,1.30
2019-04-01T03:40:00.237Z,2.87
2019-04-01T03:42:31.902Z,2.17
2019-04-01T03:45:03.301Z,2.07
2019-04-01T03:47:34.759Z,2.90
2019-04-01T03:50:07.990Z,2.10
2019-04-01T03:52:39.220Z,2.57
2019-04-01T03:55:10.628Z,2.23
2019-04-01T03:57:41.927Z,2.50
2019-04-01T04:00:17.245Z,2.47
2019-04-01T04:02:48.507Z,2.10
2019-04-01T04:05:19.750Z,2.10
2019-04-01T04:07:50.996Z,2.17
2019-04-01T04:10:22.369Z,1.80
2019-04-01T04:12:53.658Z,3.30
2019-04-01T04:15:24.971Z,3.30
2019-04-01T04:17:56.267Z,3.53
2019-04-01T04:20:27.567Z,2.60
2019-04-01T04:22:58.816Z,3.03
2019-04-01T04:25:30.212Z,2.00
2019-04-01T04:28:01.539Z,2.53
2019-04-01T04:30:32.913Z,2.40
2019-04-01T04:33:04.455Z,2.83
2019-04-01T04:35:35.869Z,2.07
2019-04-01T04:38:07.158Z,2.73
2019-04-01T04:40:40.836Z,2.20
2019-04-01T04:43:11.197Z,2.20
2019-04-01T04:45:42.578Z,2.20
2019-04-01T04:48:13.845Z,3.40
2019-04-01T04:50:45.111Z,3.00
2019-04-01T04:53:16.412Z,2.53
2019-04-01T04:55:47.674Z,3.27
2019-04-01T04:58:19.150Z,2.80
2019-04-01T05:00:50.389Z,2.83
2019-04-01T05:03:21.643Z,3.77
2019-04-01T05:05:52.921Z,2.80
2019-04-01T05:08:24.228Z,2.80
2019-04-01T05:10:55.499Z,2.20
2019-04-01T05:13:26.723Z,2.60
2019-04-01T05:15:58.223Z,1.93
2019-04-01T05:18:29.499Z,3.30
2019-04-01T05:21:02.755Z,2.63
2019-04-01T05:23:34.096Z,2.70
2019-04-01T05:26:07.492Z,2.40
2019-04-01T05:28:41.001Z,2.03
2019-04-01T05:31:18.368Z,2.13
2019-04-01T05:33:55.485Z,3.33
2019-04-01T05:36:27.648Z,2.90
2019-04-01T05:38:58.914Z,2.93
2019-04-01T05:41:31.500Z,2.57
2019-04-01T05:44:03.203Z,2.47
2019-04-01T05:46:34.461Z,3.60
2019-04-01T05:49:05.893Z,3.00
2019-04-01T05:51:37.220Z,3.90
2019-04-01T05:54:08.626Z,3.10
2019-04-01T05:56:39.961Z,3.30
2019-04-01T05:59:11.295Z,4.07
2019-04-01T06:01:45.505Z,2.20
2019-04-01T06:04:17.106Z,2.60
2019-04-01T06:06:49.045Z,2.47
2019-04-01T06:09:20.499Z,2.30
2019-04-01T06:11:51.875Z,2.97
2019-04-01T06:14:23.520Z,3.10
2019-04-01T06:16:55.280Z,2.90
2019-04-01T06:19:26.671Z,2.33
2019-04-01T06:21:57.944Z,2.63
2019-04-01T06:24:29.173Z,2.43
2019-04-01T06:27:00.723Z,2.60
2019-04-01T06:29:32.864Z,3.03
2019-04-01T06:32:04.358Z,3.37
2019-04-01T06:34:35.800Z,3.60
2019-04-01T06:37:07.672Z,4.67
2019-04-01T06:39:39.026Z,3.63
2019-04-01T06:42:10.266Z,2.57
2019-04-01T06:44:41.581Z,2.70
2019-04-01T06:47:12.952Z,3.27
2019-04-01T06:49:44.231Z,2.70
2019-04-01T06:52:15.497Z,2.43
2019-04-01T06:54:46.795Z,3.17
2019-04-01T06:57:18.011Z,2.63
2019-04-01T06:59:49.711Z,2.70
2019-04-01T07:02:20.986Z,2.70
2019-04-01T07:04:52.403Z,3.13
2019-04-01T07:07:24.926Z,2.50
2019-04-01T07:09:56.208Z,2.77
2019-04-01T07:12:30.536Z,3.30
2019-04-01T07:15:01.866Z,2.87
2019-04-01T07:17:33.243Z,2.33
2019-04-01T07:20:08.550Z,2.90
2019-04-01T07:22:38.082Z,2.80
2019-04-01T07:25:09.459Z,3.13
2019-04-01T07:27:41.027Z,2.70
2019-04-01T07:30:12.745Z,3.33
2019-04-01T07:32:44.181Z,2.90
2019-04-01T07:35:15.653Z,2.73
2019-04-01T07:37:47.283Z,2.70
2019-04-01T07:40:18.559Z,3.00
2019-04-01T07:42:49.982Z,3.03
2019-04-01T07:45:21.460Z,2.47
2019-04-01T07:47:53.442Z,2.47
2019-04-01T07:50:24.711Z,2.50
2019-04-01T07:52:56.124Z,2.17
2019-04-01T07:55:27.408Z,2.70
2019-04-01T07:57:59.899Z,2.70
2019-04-01T08:00:31.316Z,2.20
2019-04-01T08:03:02.555Z,2.33
2019-04-01T08:05:33.919Z,1.77
2019-04-01T08:08:05.293Z,2.37
2019-04-01T08:10:36.610Z,2.50
2019-04-01T08:13:12.777Z,2.43
2019-04-01T08:15:44.043Z,2.90
2019-04-01T08:18:15.255Z,3.37
2019-04-01T08:20:46.566Z,2.77
2019-04-01T08:23:17.957Z,2.30
2019-04-01T08:25:49.308Z,2.40
2019-04-01T08:28:23.664Z,3.37
2019-04-01T08:30:53.793Z,4.43
2019-04-01T08:33:25.042Z,2.10
2019-04-01T08:35:56.459Z,3.40
2019-04-01T08:38:28.052Z,3.13
2019-04-01T08:40:59.603Z,2.57
2019-04-01T08:43:31.059Z,2.80
2019-04-01T08:46:02.602Z,2.60
2019-04-01T08:48:35.659Z,2.60
2019-04-01T08:51:07.140Z,2.97
2019-04-01T08:53:38.904Z,3.00
2019-04-01T08:56:10.719Z,2.83
2019-04-01T08:58:42.015Z,2.87
2019-04-01T09:01:13.312Z,2.87
2019-04-01T09:03:44.567Z,2.60
2019-04-01T09:06:15.813Z,2.90
2019-04-01T09:08:47.373Z,2.50
2019-04-01T09:11:18.748Z,3.60
2019-04-01T09:13:50.724Z,3.00
2019-04-01T09:16:24.047Z,2.90
2019-04-01T09:18:58.306Z,2.73
2019-04-01T09:21:29.668Z,2.50
2019-04-01T09:24:01.029Z,3.77
2019-04-01T09:26:32.255Z,2.87
2019-04-01T09:29:03.652Z,3.10
2019-04-01T09:31:34.979Z,2.80
2019-04-01T09:34:06.315Z,3.07
2019-04-01T09:36:37.555Z,4.30
2019-04-01T09:39:29.588Z,2.97
2019-04-01T09:42:04.133Z,3.13
2019-04-01T09:44:36.937Z,4.10
2019-04-01T09:47:08.829Z,3.30
2019-04-01T09:49:40.177Z,3.93
2019-04-01T09:52:21.462Z,3.63
2019-04-01T09:54:52.751Z,3.43
2019-04-01T09:57:24.026Z,2.90
2019-04-01T09:59:55.407Z,4.33
2019-04-01T10:02:32.031Z,3.57
2019-04-01T10:04:59.787Z,4.00
2019-04-01T10:07:31.174Z,3.07
2019-04-01T10:10:07.149Z,3.67
2019-04-01T10:12:38.451Z,4.70
2019-04-01T10:15:21.432Z,4.27
2019-04-01T10:17:56.409Z,3.43
2019-04-01T10:20:27.627Z,7.03
2019-04-01T10:23:00.173Z,3.30
2019-04-01T10:25:31.404Z,5.70
2019-04-01T10:28:02.724Z,4.67
2019-04-01T10:30:34.110Z,3.10
2019-04-01T10:33:06.117Z,4.57
2019-04-01T10:35:37.454Z,4.67
2019-04-01T10:38:08.677Z,4.10
2019-04-01T10:40:40.293Z,3.77
2019-04-01T10:43:12.067Z,3.97
2019-04-01T10:45:54.244Z,5.10
2019-04-01T10:48:28.775Z,3.20
2019-04-01T10:51:00.604Z,4.13
2019-04-01T10:53:32.034Z,3.60
2019-04-01T10:56:04.327Z,5.00
2019-04-01T10:58:35.684Z,4.20
2019-04-01T11:01:07.208Z,3.63
2019-04-01T11:03:38.599Z,4.17
2019-04-01T11:06:09.879Z,4.27
2019-04-01T11:08:41.171Z,4.43
2019-04-01T11:11:12.473Z,3.87
2019-04-01T11:13:43.735Z,4.20
2019-04-01T11:16:15.146Z,3.30
2019-04-01T11:18:46.502Z,6.53
2019-04-01T11:21:17.841Z,4.73
2019-04-01T11:23:49.088Z,5.20
2019-04-01T11:26:20.486Z,5.87
2019-04-01T11:28:51.827Z,4.83
2019-04-01T11:31:23.215Z,3.73
2019-04-01T11:33:57.796Z,5.23
2019-04-01T11:36:29.099Z,4.20
2019-04-01T11:39:00.573Z,5.10
2019-04-01T11:41:31.837Z,4.43
2019-04-01T11:44:03.356Z,4.80
2019-04-01T11:46:34.698Z,4.50
2019-04-01T11:49:06.073Z,4.60
2019-04-01T11:51:40.035Z,5.10
2019-04-01T11:54:10.552Z,7.63
2019-04-01T11:56:57.490Z,5.23
2019-04-01T11:59:28.716Z,4.43
2019-04-01T12:01:59.984Z,5.40
2019-04-01T12:04:31.370Z,6.17
2019-04-01T12:07:02.951Z,5.30
2019-04-01T12:09:34.178Z,4.37
2019-04-01T12:12:05.605Z,5.30
2019-04-01T12:14:36.877Z,5.10
2019-04-01T12:17:08.079Z,4.80
2019-04-01T12:19:40.180Z,5.97
2019-04-01T12:22:11.613Z,5.63
2019-04-01T12:24:42.847Z,5.57
2019-04-01T12:27:14.118Z,4.50
2019-04-01T12:29:48.139Z,4.93
2019-04-01T12:32:18.319Z,5.20
2019-04-01T12:34:49.585Z,5.00
2019-04-01T12:37:20.852Z,3.53
2019-04-01T12:39:53.405Z,3.93
2019-04-01T12:42:25.316Z,4.70
2019-04-01T12:44:56.670Z,6.17
2019-04-01T12:47:27.892Z,5.00
2019-04-01T12:49:59.181Z,5.50
2019-04-01T12:52:30.561Z,5.40
2019-04-01T12:55:01.956Z,5.40
2019-04-01T12:57:33.334Z,4.30
2019-04-01T13:00:05.196Z,5.00
2019-04-01T13:02:36.512Z,5.20
2019-04-01T13:05:08.407Z,5.10
2019-04-01T13:07:39.721Z,4.43
2019-04-01T13:12:43.923Z,4.87
2019-04-01T13:15:15.639Z,4.83
2019-04-01T13:17:46.855Z,4.93
2019-04-01T13:20:18.157Z,5.07
2019-04-01T13:22:49.474Z,5.47
2019-04-01T13:25:20.691Z,5.00
2019-04-01T13:27:52.027Z,4.70
2019-04-01T13:30:24.281Z,4.83
2019-04-01T13:32:56.420Z,5.33
2019-04-01T13:35:27.804Z,5.03
2019-04-01T13:37:59.135Z,5.27
2019-04-01T13:40:30.519Z,6.63
2019-04-01T13:43:04.615Z,5.10
2019-04-01T13:45:34.754Z,5.47
2019-04-01T13:48:06.072Z,5.27
2019-04-01T13:50:37.264Z,5.30
2019-04-01T13:53:08.681Z,5.80
2019-04-01T13:55:39.962Z,5.30
2019-04-01T13:58:11.586Z,5.10
2019-04-01T14:00:42.823Z,4.97
2019-04-01T14:03:14.118Z,5.67
2019-04-01T14:05:45.497Z,4.40
2019-04-01T14:08:16.826Z,5.00
2019-04-01T14:10:48.121Z,4.37
2019-04-01T14:13:19.347Z,4.93
2019-04-01T14:15:51.535Z,4.87
2019-04-01T14:18:22.878Z,5.80
2019-04-01T14:20:54.214Z,6.03
2019-04-01T14:23:25.430Z,6.20
2019-04-01T14:25:56.701Z,4.83
2019-04-01T14:28:28.020Z,4.37
2019-04-01T14:30:59.383Z,5.50
2019-04-01T14:33:32.597Z,4.40
2019-04-01T14:36:04.751Z,5.53
2019-04-01T14:38:36.217Z,4.80
2019-04-01T14:41:07.546Z,5.87
2019-04-01T14:43:40.171Z,4.70
2019-04-01T14:46:11.591Z,4.47
2019-04-01T14:48:42.861Z,5.63
2019-04-01T14:51:14.235Z,5.40
2019-04-01T14:53:45.570Z,5.40
2019-04-01T14:56:16.952Z,4.60
2019-04-01T14:58:48.212Z,5.20
2019-04-01T15:01:19.594Z,5.20
2019-04-01T15:03:50.808Z,6.00
2019-04-01T15:06:22.104Z,5.60
2019-04-01T15:08:53.386Z,5.50
2019-04-01T15:11:24.632Z,5.30
2019-04-01T15:13:55.894Z,4.90
2019-04-01T15:16:27.189Z,5.13
2019-04-01T15:18:58.413Z,5.57
2019-04-01T15:21:29.725Z,5.13
2019-04-01T15:24:01.017Z,5.13
2019-04-01T15:26:33.856Z,5.03
2019-04-01T15:29:05.358Z,4.47
2019-04-01T15:31:36.624Z,4.47
2019-04-01T15:34:09.368Z,5.60
2019-04-01T15:36:40.855Z,5.13
2019-04-01T15:39:14.217Z,4.47
2019-04-01T15:41:45.725Z,6.40
2019-04-01T15:44:17.119Z,6.23
2019-04-01T15:46:48.494Z,5.23
2019-04-01T15:49:20.052Z,5.23
2019-04-01T15:51:51.326Z,4.70
2019-04-01T15:54:22.766Z,5.10
2019-04-01T15:56:54.072Z,5.20
2019-04-01T15:59:25.437Z,5.57
2019-04-01T16:01:56.908Z,4.70
2019-04-01T16:04:28.188Z,5.93
2019-04-01T16:07:18.250Z,5.30
2019-04-01T16:09:49.447Z,5.13
2019-04-01T16:12:21.051Z,5.27
2019-04-01T16:14:52.326Z,5.23
2019-04-01T16:17:23.682Z,4.93
2019-04-01T16:19:54.991Z,5.40
2019-04-01T16:22:29.274Z,5.33
2019-04-01T16:25:02.818Z,4.77
2019-04-01T16:27:34.194Z,5.40
2019-04-01T16:30:05.923Z,5.50
2019-04-01T16:32:37.434Z,5.10
2019-04-01T16:35:09.961Z,5.27
2019-04-01T16:37:41.313Z,5.10
2019-04-01T16:40:13.176Z,5.43
2019-04-01T16:42:44.709Z,5.23
2019-04-01T16:45:19.262Z,4.70
2019-04-01T16:47:50.600Z,6.20
2019-04-01T16:50:21.990Z,5.30
2019-04-01T16:52:53.334Z,5.37
2019-04-01T16:55:24.778Z,4.80
2019-04-01T16:57:56.117Z,5.47
2019-04-01T17:00:27.657Z,5.20
2019-04-01T17:02:58.922Z,5.17
2019-04-01T17:05:35.750Z,7.30
2019-04-01T17:08:07.451Z,5.80
2019-04-01T17:10:38.804Z,4.17
2019-04-01T17:13:10.888Z,5.27
2019-04-01T17:15:42.367Z,5.10
2019-04-01T17:18:13.643Z,5.23
2019-04-01T17:20:45.053Z,5.03
2019-04-01T17:23:16.432Z,4.80
2019-04-01T17:25:47.842Z,5.00
2019-04-01T17:28:19.614Z,4.83
2019-04-01T17:30:51.096Z,5.37
2019-04-01T17:33:23.253Z,5.00
2019-04-01T17:35:58.676Z,4.70
2019-04-01T17:38:31.177Z,4.80
2019-04-01T17:41:03.364Z,4.70
2019-04-01T17:43:34.867Z,5.30
2019-04-01T17:46:06.419Z,4.63
2019-04-01T17:48:37.772Z,5.90
2019-04-01T17:51:10.206Z,5.03
2019-04-01T17:53:41.724Z,4.50
2019-04-01T17:56:13.035Z,4.60
2019-04-01T17:58:53.413Z,5.37
2019-04-01T18:01:24.777Z,4.83
2019-04-01T18:03:56.101Z,4.80
2019-04-01T18:06:27.628Z,4.67
2019-04-01T18:08:59.014Z,5.17
2019-04-01T18:11:30.377Z,5.67
2019-04-01T18:14:02.968Z,5.67
2019-04-01T18:16:34.543Z,5.17
2019-04-01T18:19:06.342Z,5.87
2019-04-01T18:21:46.209Z,5.70
2019-04-01T18:24:17.697Z,5.53
2019-04-01T18:26:49.113Z,6.20
2019-04-01T18:29:20.633Z,5.97
2019-04-01T18:31:52.210Z,5.50
2019-04-01T18:34:23.746Z,5.30
2019-04-01T18:36:55.081Z,6.53
2019-04-01T18:39:29.711Z,5.47
2019-04-01T18:41:59.355Z,4.60
2019-04-01T18:44:30.806Z,6.13
2019-04-01T18:47:03.933Z,5.77
2019-04-01T18:49:35.220Z,4.80
2019-04-01T18:52:06.548Z,7.30
2019-04-01T18:54:37.867Z,5.87
2019-04-01T18:57:09.174Z,7.17
2019-04-01T18:59:40.359Z,6.40
2019-04-01T19:02:13.073Z,5.07
2019-04-01T19:04:44.557Z,5.43
2019-04-01T19:07:15.810Z,6.87
2019-04-01T19:09:47.021Z,5.80
2019-04-01T19:12:18.451Z,6.13
2019-04-01T19:14:49.729Z,6.90
2019-04-01T19:17:23.834Z,7.57
2019-04-01T19:19:55.230Z,5.80
2019-04-01T19:22:26.671Z,6.20
2019-04-01T19:24:58.073Z,7.27
2019-04-01T19:27:29.383Z,7.00
2019-04-01T19:30:00.731Z,6.00
2019-04-01T19:32:32.188Z,6.40
2019-04-01T19:35:04.921Z,7.03
2019-04-01T19:37:36.457Z,7.33
2019-04-01T19:40:08.785Z,7.17
2019-04-01T19:42:39.972Z,6.60
2019-04-01T19:45:13.187Z,7.33
2019-04-01T19:47:44.349Z,7.80
2019-04-01T19:50:18.530Z,7.23
2019-04-01T19:52:49.952Z,6.47
2019-04-01T19:55:21.240Z,6.13
2019-04-01T19:57:52.583Z,7.33
2019-04-01T20:00:28.255Z,6.37
2019-04-01T20:02:56.928Z,6.97
2019-04-01T20:05:28.227Z,5.80
2019-04-01T20:08:05.594Z,7.40
2019-04-01T20:10:37.074Z,6.23
2019-04-01T20:13:10.143Z,6.40
2019-04-01T20:15:41.735Z,6.07
2019-04-01T20:18:13.112Z,6.60
2019-04-01T20:20:44.412Z,7.30
2019-04-01T20:23:15.744Z,6.23
2019-04-01T20:25:48.791Z,6.97
2019-04-01T20:28:20.111Z,7.53
2019-04-01T20:30:51.562Z,6.77
2019-04-01T20:33:22.957Z,8.27
2019-04-01T20:35:54.199Z,9.90
2019-04-01T20:38:27.181Z,7.53
2019-04-01T20:40:58.463Z,7.53
2019-04-01T20:43:29.942Z,8.10
2019-04-01T20:46:01.357Z,6.63
2019-04-01T20:48:33.255Z,6.40
2019-04-01T20:51:05.050Z,6.33
2019-04-01T20:53:36.404Z,6.20
2019-04-01T20:56:07.676Z,4.60
2019-04-01T20:58:39.034Z,5.50
2019-04-01T21:01:10.428Z,6.90
2019-04-01T21:03:44.583Z,6.83
2019-04-01T21:06:17.296Z,6.63
2019-04-01T21:08:48.538Z,6.40
2019-04-01T21:11:19.887Z,6.10
2019-04-01T21:13:51.329Z,6.13
2019-04-01T21:16:22.890Z,6.67
2019-04-01T21:19:05.837Z,9.30
2019-04-01T21:21:37.226Z,6.53
2019-04-01T21:24:08.487Z,6.20
2019-04-01T21:26:39.817Z,6.30
2019-04-01T21:29:11.389Z,6.33
2019-04-01T21:31:42.770Z,6.47
2019-04-01T21:34:14.268Z,6.17
2019-04-01T21:36:45.666Z,6.20
2019-04-01T21:39:16.913Z,6.33
2019-04-01T21:41:48.239Z,7.33
2019-04-01T21:44:19.689Z,6.67
2019-04-01T21:46:50.993Z,7.30
2019-04-01T21:49:22.376Z,7.50
2019-04-01T21:51:57.015Z,7.90
2019-04-01T21:54:28.556Z,7.50
2019-04-01T21:56:59.851Z,6.80
2019-04-01T21:59:31.197Z,7.70
2019-04-01T22:02:03.415Z,6.50
2019-04-01T22:04:34.612Z,6.77
2019-04-01T22:07:06.172Z,6.60
2019-04-01T22:09:37.367Z,7.80
2019-04-01T22:12:08.621Z,7.43
2019-04-01T22:14:43.221Z,7.50
2019-04-01T22:17:14.501Z,7.97
2019-04-01T22:19:45.800Z,6.53
2019-04-01T22:22:17.000Z,7.43
2019-04-01T22:24:48.297Z,7.10
2019-04-01T22:27:19.387Z,7.53
2019-04-01T22:29:50.695Z,8.27
2019-04-01T22:32:21.935Z,8.10
2019-04-01T22:34:53.075Z,8.83
2019-04-01T22:37:27.373Z,10.17
2019-04-01T22:39:57.072Z,8.60
2019-04-01T22:42:28.319Z,7.50
2019-04-01T22:44:59.498Z,8.23
2019-04-01T22:47:30.724Z,9.20
2019-04-01T22:50:01.927Z,8.30
2019-04-01T22:52:33.139Z,9.10
2019-04-01T22:55:04.284Z,7.40
2019-04-01T22:57:35.479Z,8.37
2019-04-01T23:00:07.654Z,8.50
2019-04-01T23:02:38.891Z,8.83
2019-04-01T23:05:10.354Z,7.87
2019-04-01T23:07:41.613Z,8.80
2019-04-01T23:10:19.262Z,8.30
2019-04-01T23:12:51.173Z,8.07
2019-04-01T23:15:22.956Z,8.87
2019-04-01T23:17:57.106Z,8.17
2019-04-01T23:20:28.438Z,8.90
2019-04-01T23:22:59.605Z,9.03
2019-04-01T23:25:30.641Z,9.40
2019-04-01T23:28:01.927Z,8.67
2019-04-01T23:30:33.109Z,10.40
2019-04-01T23:33:04.251Z,9.40
2019-04-01T23:35:35.396Z,8.57
2019-04-01T23:38:07.237Z,8.13
2019-04-01T23:40:38.743Z,8.73
2019-04-01T23:43:09.868Z,8.50
2019-04-01T23:45:41.096Z,9.53
2019-04-01T23:48:13.092Z,8.87
2019-04-01T23:50:45.319Z,9.53
2019-04-01T23:53:16.580Z,9.03
2019-04-01T23:55:47.776Z,8.53
2019-04-01T23:58:19.013Z,8.87
